createdAt,value
2022-08-07T07:07:18.853Z,17.79
2022-08-07T07:08:10.064Z,17.97
2022-08-07T07:09:06.885Z,17.93
2022-08-07T07:10:06.858Z,18.06
2022-08-07T07:11:13.183Z,18.11
2022-08-07T07:12:19.648Z,18.05
2022-08-07T07:13:06.854Z,18.13
2022-08-07T07:14:08.310Z,18.23
2022-08-07T07:15:08.597Z,18.18
2022-08-07T07:16:06.735Z,18.31
2022-08-07T07:17:06.711Z,18.27
2022-08-07T07:18:06.692Z,18.34
2022-08-07T07:19:54.831Z,18.36
2022-08-07T07:20:06.670Z,18.36
2022-08-07T07:21:13.630Z,18.36
2022-08-07T07:22:32.278Z,18.38
2022-08-07T07:24:08.227Z,18.41
2022-08-07T07:24:11.735Z,18.48
2022-08-07T07:26:31.583Z,18.49
2022-08-07T07:26:34.907Z,18.54
2022-08-07T07:27:06.729Z,18.67
2022-08-07T07:28:07.569Z,18.63
2022-08-07T07:29:56.107Z,18.67
2022-08-07T07:30:09.119Z,18.68
2022-08-07T07:31:07.070Z,18.88
2022-08-07T07:32:06.459Z,18.85
2022-08-07T07:33:06.416Z,18.85
2022-08-07T07:34:06.426Z,18.97
2022-08-07T07:35:06.394Z,18.88
2022-08-07T07:36:13.308Z,19.04
2022-08-07T07:37:21.558Z,19.07
2022-08-07T07:38:06.707Z,19.05
2022-08-07T07:39:06.389Z,19.16
2022-08-07T07:40:06.333Z,19.20
2022-08-07T07:41:08.943Z,19.31
2022-08-07T07:42:13.760Z,19.34
2022-08-07T07:43:15.316Z,19.41
2022-08-07T07:44:17.458Z,19.45
2022-08-07T07:45:06.219Z,19.59
2022-08-07T07:46:53.684Z,19.59
2022-08-07T07:47:15.705Z,19.62
2022-08-07T07:48:06.181Z,19.62
2022-08-07T07:49:09.127Z,19.63
2022-08-07T07:50:33.455Z,19.64
2022-08-07T07:51:07.791Z,19.77
2022-08-07T07:52:06.113Z,19.77
2022-08-07T07:53:06.089Z,19.77
2022-08-07T07:54:06.092Z,19.93
2022-08-07T07:55:06.088Z,19.99
2022-08-07T07:56:06.059Z,20.00
2022-08-07T07:57:06.042Z,20.08
2022-08-07T07:58:06.005Z,20.07
2022-08-07T07:59:06.216Z,20.22
2022-08-07T08:00:05.974Z,20.22
2022-08-07T08:02:01.930Z,20.25
2022-08-07T08:02:10.296Z,20.26
2022-08-07T08:03:07.908Z,20.39
2022-08-07T08:04:11.523Z,20.34
2022-08-07T08:05:11.506Z,20.37
2022-08-07T08:06:05.901Z,20.33
2022-08-07T08:07:07.694Z,20.42
2022-08-07T08:08:05.860Z,20.55
2022-08-07T08:09:05.827Z,20.53
2022-08-07T08:10:05.932Z,20.56
2022-08-07T08:11:05.812Z,20.64
2022-08-07T08:12:06.056Z,20.86
2022-08-07T08:13:05.763Z,20.83
2022-08-07T08:14:05.748Z,20.95
2022-08-07T08:15:07.004Z,20.98
2022-08-07T08:16:05.736Z,21.01
2022-08-07T08:17:55.576Z,21.01
2022-08-07T08:18:17.334Z,21.08
2022-08-07T08:19:17.476Z,21.04
2022-08-07T08:20:17.366Z,21.16
2022-08-07T08:21:05.643Z,21.20
2022-08-07T08:22:05.619Z,21.19
2022-08-07T08:23:06.452Z,21.28
2022-08-07T08:24:05.617Z,21.32
2022-08-07T08:25:24.973Z,21.38
2022-08-07T08:26:07.128Z,21.50
2022-08-07T08:27:09.278Z,21.47
2022-08-07T08:28:05.536Z,21.51
2022-08-07T08:29:05.503Z,21.56
2022-08-07T08:30:05.500Z,21.59
2022-08-07T08:31:05.476Z,21.65
2022-08-07T08:32:17.939Z,21.78
2022-08-07T08:33:05.467Z,21.81
2022-08-07T08:34:05.427Z,21.82
2022-08-07T08:35:05.413Z,21.84
2022-08-07T08:36:05.417Z,22.03
2022-08-07T08:37:09.861Z,22.09
2022-08-07T08:38:05.445Z,22.16
2022-08-07T08:39:05.416Z,22.23
2022-08-07T08:40:05.461Z,22.30
2022-08-07T08:41:05.389Z,22.46
2022-08-07T08:42:05.309Z,22.48
2022-08-07T08:43:05.306Z,22.46
2022-08-07T08:44:05.288Z,22.48
2022-08-07T08:45:05.254Z,22.55
2022-08-07T08:46:05.242Z,22.64
2022-08-07T08:47:05.235Z,22.73
2022-08-07T08:48:05.214Z,22.80
2022-08-07T08:49:05.251Z,22.81
2022-08-07T08:50:05.976Z,22.91
2022-08-07T08:51:14.637Z,23.04
2022-08-07T08:52:14.067Z,23.13
2022-08-07T08:53:05.134Z,23.15
2022-08-07T08:54:05.124Z,23.23
2022-08-07T08:55:07.819Z,23.28
2022-08-07T08:56:05.091Z,23.29
2022-08-07T08:57:05.069Z,23.46
2022-08-07T08:58:05.058Z,23.54
2022-08-07T08:59:08.671Z,23.55
2022-08-07T09:00:05.025Z,23.56
2022-08-07T09:01:15.296Z,23.74
2022-08-07T09:02:05.089Z,23.70
2022-08-07T09:03:07.531Z,23.81
2022-08-07T09:04:05.010Z,23.85
2022-08-07T09:05:04.952Z,23.86
2022-08-07T09:06:04.929Z,23.96
2022-08-07T09:07:04.920Z,24.03
2022-08-07T09:08:04.907Z,23.97
2022-08-07T09:09:13.568Z,24.04
2022-08-07T09:10:04.893Z,24.13
2022-08-07T09:11:04.861Z,24.08
2022-08-07T09:12:30.509Z,24.29
2022-08-07T09:13:04.831Z,24.33
2022-08-07T09:14:04.814Z,24.33
2022-08-07T09:16:23.931Z,24.22
2022-08-07T09:16:24.390Z,24.22
2022-08-07T09:17:05.354Z,24.36
2022-08-07T09:18:09.913Z,24.44
2022-08-07T09:19:07.257Z,24.76
2022-08-07T09:20:35.042Z,24.85
2022-08-07T09:21:04.921Z,24.91
2022-08-07T09:22:22.656Z,25.01
2022-08-07T09:24:32.504Z,25.31
2022-08-07T09:24:53.917Z,25.18
2022-08-07T09:25:11.922Z,25.43
2022-08-07T09:26:04.641Z,25.38
2022-08-07T09:27:11.851Z,25.48
2022-08-07T09:28:04.614Z,25.68
2022-08-07T09:30:01.981Z,25.86
2022-08-07T09:30:08.373Z,26.10
2022-08-07T09:31:04.570Z,26.39
2022-08-07T09:32:04.554Z,26.68
2022-08-07T09:33:05.716Z,26.85
2022-08-07T09:34:04.541Z,26.85
2022-08-07T09:36:04.048Z,27.22
2022-08-07T09:36:07.720Z,27.34
2022-08-07T09:37:04.490Z,27.50
2022-08-07T09:38:04.497Z,27.68
2022-08-07T09:39:11.489Z,27.78
2022-08-07T09:40:04.497Z,27.94
2022-08-07T09:41:04.424Z,27.97
2022-08-07T09:42:07.596Z,28.05
2022-08-07T09:43:04.404Z,28.17
2022-08-07T09:44:06.634Z,28.35
2022-08-07T09:47:27.389Z,28.65
2022-08-07T09:47:49.909Z,28.81
2022-08-07T09:47:52.194Z,28.53
2022-08-07T09:48:11.748Z,28.00
2022-08-07T09:50:02.859Z,28.20
2022-08-07T09:50:19.032Z,28.42
2022-08-07T09:51:04.446Z,28.10
2022-08-07T09:52:15.459Z,27.97
2022-08-07T09:53:04.283Z,28.32
2022-08-07T09:54:04.286Z,28.74
2022-08-07T09:55:04.274Z,28.81
2022-08-07T09:56:05.242Z,28.93
2022-08-07T09:57:04.229Z,29.06
2022-08-07T09:58:04.230Z,29.09
2022-08-07T09:59:07.549Z,29.13
2022-08-07T10:00:04.264Z,29.19
2022-08-07T10:01:08.482Z,29.24
2022-08-07T10:02:04.195Z,29.21
2022-08-07T10:03:07.884Z,29.10
2022-08-07T10:04:14.172Z,29.39
2022-08-07T10:05:12.586Z,29.49
2022-08-07T10:06:12.079Z,29.76
2022-08-07T10:07:04.153Z,29.25
2022-08-07T10:08:04.207Z,28.53
2022-08-07T10:09:04.117Z,28.65
2022-08-07T10:10:04.130Z,28.83
2022-08-07T10:11:58.905Z,28.96
2022-08-07T10:12:11.797Z,29.10
2022-08-07T10:13:04.097Z,28.94
2022-08-07T10:14:04.081Z,29.17
2022-08-07T10:15:04.073Z,29.25
2022-08-07T10:16:04.090Z,29.52
2022-08-07T10:17:04.053Z,29.76
2022-08-07T10:18:04.051Z,29.87
2022-08-07T10:19:04.042Z,29.99
2022-08-07T10:20:04.035Z,30.07
2022-08-07T10:21:04.031Z,29.65
2022-08-07T10:22:15.071Z,29.77
2022-08-07T10:23:04.022Z,29.91
2022-08-07T10:24:05.881Z,29.91
2022-08-07T10:25:03.996Z,29.89
2022-08-07T10:26:03.998Z,29.93
2022-08-07T10:27:06.636Z,29.98
2022-08-07T10:28:03.985Z,30.05
2022-08-07T10:29:03.974Z,30.07
2022-08-07T10:30:03.955Z,29.24
2022-08-07T10:31:06.056Z,29.28
2022-08-07T10:32:03.947Z,29.09
2022-08-07T10:33:03.933Z,29.34
2022-08-07T10:34:07.028Z,29.49
2022-08-07T10:35:03.917Z,29.65
2022-08-07T10:36:11.043Z,29.77
2022-08-07T10:37:04.768Z,29.74
2022-08-07T10:38:34.945Z,29.89
2022-08-07T10:39:05.482Z,29.73
2022-08-07T10:40:06.105Z,29.78
2022-08-07T10:41:04.116Z,29.91
2022-08-07T10:42:09.788Z,29.92
2022-08-07T10:43:03.870Z,29.77
2022-08-07T10:44:07.766Z,29.39
2022-08-07T10:45:03.863Z,29.34
2022-08-07T10:46:03.857Z,29.55
2022-08-07T10:47:03.836Z,29.66
2022-08-07T10:48:04.255Z,29.89
2022-08-07T10:49:03.811Z,30.05
2022-08-07T10:50:03.828Z,30.18
2022-08-07T10:51:03.992Z,29.91
2022-08-07T10:52:13.741Z,29.95
2022-08-07T10:53:08.034Z,29.80
2022-08-07T10:54:03.776Z,29.34
2022-08-07T10:55:20.840Z,29.39
2022-08-07T10:56:03.786Z,29.54
2022-08-07T10:57:04.560Z,29.68
2022-08-07T10:58:03.748Z,29.80
2022-08-07T10:59:03.733Z,29.27
2022-08-07T11:00:03.735Z,29.12
2022-08-07T11:01:11.364Z,29.27
2022-08-07T11:02:04.814Z,29.50
2022-08-07T11:03:03.747Z,29.68
2022-08-07T11:04:16.520Z,29.84
2022-08-07T11:05:10.210Z,30.14
2022-08-07T11:06:04.771Z,30.28
2022-08-07T11:07:03.678Z,30.33
2022-08-07T11:08:03.788Z,30.35
2022-08-07T11:09:03.675Z,30.37
2022-08-07T11:10:07.964Z,30.40
2022-08-07T11:11:03.651Z,30.18
2022-08-07T11:12:03.643Z,30.22
2022-08-07T11:13:03.659Z,30.07
2022-08-07T11:14:43.555Z,30.10
2022-08-07T11:15:03.618Z,29.98
2022-08-07T11:16:03.608Z,30.17
2022-08-07T11:17:07.225Z,30.30
2022-08-07T11:18:04.565Z,30.29
2022-08-07T11:19:03.611Z,30.46
2022-08-07T11:20:03.615Z,30.49
2022-08-07T11:21:03.585Z,30.64
2022-08-07T11:22:03.583Z,30.75
2022-08-07T11:23:03.562Z,30.80
2022-08-07T11:24:03.555Z,30.88
2022-08-07T11:25:06.607Z,30.48
2022-08-07T11:26:06.505Z,30.53
2022-08-07T11:27:03.529Z,30.73
2022-08-07T11:28:04.430Z,30.89
2022-08-07T11:29:05.692Z,30.75
2022-08-07T11:30:17.863Z,30.88
2022-08-07T11:31:03.515Z,30.67
2022-08-07T11:32:03.490Z,30.51
2022-08-07T11:33:08.121Z,30.22
2022-08-07T11:34:03.473Z,30.20
2022-08-07T11:35:03.477Z,30.29
2022-08-07T11:36:08.102Z,30.37
2022-08-07T11:37:03.449Z,30.36
2022-08-07T11:38:10.221Z,30.55
2022-08-07T11:39:03.465Z,30.53
2022-08-07T11:40:03.936Z,30.56
2022-08-07T11:41:03.449Z,30.67
2022-08-07T11:42:03.530Z,30.82
2022-08-07T11:43:03.410Z,30.85
2022-08-07T11:44:12.670Z,30.89
2022-08-07T11:45:03.521Z,30.78
2022-08-07T11:46:03.383Z,30.86
2022-08-07T11:47:03.376Z,30.86
2022-08-07T11:48:06.066Z,30.82
2022-08-07T11:49:50.696Z,30.80
2022-08-07T11:50:31.086Z,30.83
2022-08-07T11:51:03.423Z,30.85
2022-08-07T11:52:03.364Z,30.97
2022-08-07T11:53:05.179Z,31.08
2022-08-07T11:54:09.727Z,29.95
2022-08-07T11:55:03.322Z,28.64
2022-08-07T11:56:25.212Z,28.19
2022-08-07T11:57:03.295Z,28.56
2022-08-07T11:58:03.420Z,28.96
2022-08-07T11:59:03.296Z,29.40
2022-08-07T12:00:12.560Z,29.73
2022-08-07T12:01:05.248Z,30.03
2022-08-07T12:02:03.392Z,30.15
2022-08-07T12:03:03.438Z,30.17
2022-08-07T12:04:03.325Z,30.36
2022-08-07T12:05:03.249Z,30.37
2022-08-07T12:06:37.674Z,30.49
2022-08-07T12:07:10.126Z,30.62
2022-08-07T12:08:03.688Z,30.71
2022-08-07T12:09:03.214Z,30.90
2022-08-07T12:10:05.793Z,30.97
2022-08-07T12:11:20.115Z,30.90
2022-08-07T12:12:10.335Z,30.89
2022-08-07T12:13:03.197Z,30.80
2022-08-07T12:14:03.189Z,30.71
2022-08-07T12:15:03.183Z,30.92
2022-08-07T12:16:06.769Z,31.02
2022-08-07T12:17:04.360Z,31.15
2022-08-07T12:18:07.959Z,31.07
2022-08-07T12:19:03.132Z,31.29
2022-08-07T12:20:10.318Z,31.15
2022-08-07T12:21:03.115Z,31.33
2022-08-07T12:22:39.327Z,31.54
2022-08-07T12:23:08.992Z,31.64
2022-08-07T12:24:05.501Z,31.59
2022-08-07T12:25:07.535Z,31.82
2022-08-07T12:26:23.332Z,31.86
2022-08-07T12:27:03.071Z,31.91
2022-08-07T12:28:08.445Z,31.91
2022-08-07T12:29:03.687Z,31.97
2022-08-07T12:30:03.040Z,31.84
2022-08-07T12:31:03.035Z,31.79
2022-08-07T12:32:04.607Z,31.57
2022-08-07T12:33:03.023Z,31.44
2022-08-07T12:34:04.270Z,31.51
2022-08-07T12:35:03.008Z,31.56
2022-08-07T12:36:03.020Z,31.56
2022-08-07T12:37:08.679Z,31.59
2022-08-07T12:38:09.643Z,31.54
2022-08-07T12:39:03.003Z,31.70
2022-08-07T12:40:02.995Z,31.89
2022-08-07T12:41:02.980Z,31.81
2022-08-07T12:42:02.964Z,31.95
2022-08-07T12:43:03.028Z,32.11
2022-08-07T12:44:05.604Z,32.19
2022-08-07T12:45:05.745Z,32.16
2022-08-07T12:46:02.912Z,32.19
2022-08-07T12:47:02.908Z,32.06
2022-08-07T12:48:02.894Z,32.23
2022-08-07T12:49:10.098Z,32.20
2022-08-07T12:50:05.127Z,32.41
2022-08-07T12:51:13.232Z,32.55
2022-08-07T12:52:13.663Z,32.51
2022-08-07T12:53:05.349Z,32.55
2022-08-07T12:54:37.059Z,32.69
2022-08-07T12:55:05.611Z,32.69
2022-08-07T12:56:04.065Z,32.69
2022-08-07T12:57:09.410Z,32.57
2022-08-07T12:58:02.975Z,32.57
2022-08-07T12:59:02.818Z,32.43
2022-08-07T13:00:02.802Z,32.41
2022-08-07T13:01:02.876Z,32.46
2022-08-07T13:02:02.780Z,32.28
2022-08-07T13:03:06.944Z,32.13
2022-08-07T13:04:05.004Z,32.08
2022-08-07T13:05:02.748Z,31.90
2022-08-07T13:06:21.443Z,31.86
2022-08-07T13:07:02.741Z,31.90
2022-08-07T13:08:14.210Z,32.09
2022-08-07T13:09:02.735Z,32.19
2022-08-07T13:10:20.719Z,32.21
2022-08-07T13:11:02.705Z,32.06
2022-08-07T13:12:09.923Z,32.19
2022-08-07T13:13:02.691Z,32.17
2022-08-07T13:14:02.674Z,32.41
2022-08-07T13:15:02.689Z,32.57
2022-08-07T13:16:02.660Z,32.79
2022-08-07T13:17:02.646Z,32.97
2022-08-07T13:18:02.635Z,33.19
2022-08-07T13:19:02.639Z,33.29
2022-08-07T13:20:02.668Z,33.26
2022-08-07T13:21:02.786Z,33.26
2022-08-07T13:22:19.368Z,33.24
2022-08-07T13:23:09.688Z,32.92
2022-08-07T13:24:04.755Z,32.60
2022-08-07T13:25:02.685Z,32.19
2022-08-07T13:26:02.565Z,31.76
2022-08-07T13:27:02.902Z,30.88
2022-08-07T13:28:11.459Z,30.73
2022-08-07T13:29:02.558Z,31.04
2022-08-07T13:30:03.561Z,31.51
2022-08-07T13:31:06.366Z,31.75
2022-08-07T13:32:31.073Z,31.99
2022-08-07T13:33:02.517Z,31.76
2022-08-07T13:34:33.313Z,31.79
2022-08-07T13:35:08.469Z,32.08
2022-08-07T13:36:05.861Z,32.45
2022-08-07T13:37:02.482Z,32.76
2022-08-07T13:38:02.450Z,33.01
2022-08-07T13:39:02.501Z,33.09
2022-08-07T13:40:34.067Z,32.53
2022-08-07T13:41:02.487Z,32.64
2022-08-07T13:42:02.424Z,32.88
2022-08-07T13:43:02.416Z,33.06
2022-08-07T13:44:02.440Z,33.04
2022-08-07T13:45:20.961Z,33.10
2022-08-07T13:46:10.764Z,32.98
2022-08-07T13:47:02.380Z,32.98
2022-08-07T13:48:05.769Z,33.07
2022-08-07T13:49:02.358Z,32.42
2022-08-07T13:50:35.278Z,32.50
2022-08-07T13:51:28.420Z,32.64
2022-08-07T13:52:22.998Z,32.95
2022-08-07T13:53:02.331Z,32.83
2022-08-07T13:54:03.461Z,32.79
2022-08-07T13:55:02.306Z,32.82
2022-08-07T13:56:02.338Z,32.85
2022-08-07T13:57:02.290Z,32.79
2022-08-07T13:58:02.623Z,32.73
2022-08-07T13:59:02.275Z,32.55
2022-08-07T14:00:02.290Z,32.41
2022-08-07T14:01:09.063Z,32.41
2022-08-07T14:02:04.369Z,32.54
2022-08-07T14:03:02.262Z,32.43
2022-08-07T14:04:07.698Z,32.46
2022-08-07T14:05:02.369Z,32.60
2022-08-07T14:06:02.221Z,32.85
2022-08-07T14:07:02.224Z,32.97
2022-08-07T14:08:02.244Z,32.83
2022-08-07T14:09:04.491Z,32.95
2022-08-07T14:10:17.713Z,32.92
2022-08-07T14:11:14.766Z,32.88
2022-08-07T14:12:07.235Z,32.91
2022-08-07T14:13:02.164Z,32.75
2022-08-07T14:14:02.158Z,32.42
2022-08-07T14:15:02.148Z,32.14
2022-08-07T14:16:02.167Z,31.86
2022-08-07T14:17:32.431Z,31.70
2022-08-07T14:18:16.143Z,31.67
2022-08-07T14:19:02.776Z,31.02
2022-08-07T14:20:40.473Z,30.95
2022-08-07T14:21:08.079Z,31.01
2022-08-07T14:22:10.753Z,30.90
2022-08-07T14:23:02.103Z,30.88
2022-08-07T14:24:03.646Z,30.45
2022-08-07T14:25:02.076Z,30.24
2022-08-07T14:26:02.063Z,29.98
2022-08-07T14:27:02.053Z,29.55
2022-08-07T14:28:11.419Z,29.29
2022-08-07T14:30:06.590Z,29.02
2022-08-07T14:31:02.561Z,28.86
2022-08-07T14:32:02.036Z,29.07
2022-08-07T14:33:02.045Z,29.18
2022-08-07T14:34:02.003Z,29.28
2022-08-07T14:35:03.989Z,29.43
2022-08-07T14:36:01.986Z,29.58
2022-08-07T14:37:03.010Z,29.40
2022-08-07T14:38:06.076Z,29.21
2022-08-07T14:39:02.031Z,29.31
2022-08-07T14:40:17.392Z,29.25
2022-08-07T14:41:03.863Z,29.31
2022-08-07T14:42:18.888Z,29.41
2022-08-07T14:43:59.469Z,29.39
2022-08-07T14:44:11.704Z,29.36
2022-08-07T14:45:21.354Z,29.34
2022-08-07T14:46:01.912Z,29.29
2022-08-07T14:47:14.681Z,29.33
2022-08-07T14:48:01.925Z,29.19
2022-08-07T14:49:55.900Z,29.12
2022-08-07T14:50:01.882Z,29.12
2022-08-07T14:51:01.901Z,29.12
2022-08-07T14:52:03.730Z,29.10
2022-08-07T14:54:20.840Z,28.93
2022-08-07T14:55:02.414Z,28.83
2022-08-07T14:56:02.153Z,28.86
2022-08-07T14:57:02.128Z,28.79
2022-08-07T14:58:02.014Z,28.68
2022-08-07T14:59:01.828Z,28.68
2022-08-07T15:00:05.155Z,28.57
2022-08-07T15:01:21.802Z,28.59
2022-08-07T15:02:01.789Z,28.31
2022-08-07T15:03:16.423Z,28.17
2022-08-07T15:04:05.684Z,28.09
2022-08-07T15:05:02.150Z,28.05
2022-08-07T15:06:03.897Z,28.09
2022-08-07T15:07:01.747Z,28.03
2022-08-07T15:08:01.737Z,28.00
2022-08-07T15:09:01.744Z,28.10
2022-08-07T15:10:04.856Z,28.15
2022-08-07T15:11:01.807Z,28.16
2022-08-07T15:12:01.747Z,28.24
2022-08-07T15:13:01.686Z,28.24
2022-08-07T15:14:09.891Z,28.20
2022-08-07T15:15:07.367Z,28.20
2022-08-07T15:16:01.663Z,28.05
2022-08-07T15:17:01.662Z,28.16
2022-08-07T15:18:02.435Z,28.09
2022-08-07T15:19:01.657Z,28.06
2022-08-07T15:20:33.046Z,27.98
2022-08-07T15:22:04.573Z,27.83
2022-08-07T15:23:20.322Z,27.88
2022-08-07T15:25:13.547Z,27.79
2022-08-07T15:25:14.460Z,27.76
2022-08-07T15:26:01.579Z,27.70
2022-08-07T15:27:01.543Z,27.49
2022-08-07T15:30:06.371Z,27.34
2022-08-07T15:30:06.635Z,27.31
2022-08-07T15:31:05.849Z,27.19
2022-08-07T15:32:02.737Z,27.22
2022-08-07T15:33:05.624Z,27.19
2022-08-07T15:34:01.463Z,27.04
2022-08-07T15:35:01.470Z,26.90
2022-08-07T15:37:03.827Z,26.83
2022-08-07T15:38:17.829Z,26.86
2022-08-07T15:39:01.436Z,26.88
2022-08-07T15:40:01.509Z,26.71
2022-08-07T15:41:23.696Z,26.85
2022-08-07T15:42:45.628Z,26.80
2022-08-07T15:43:01.516Z,26.93
2022-08-07T15:44:01.345Z,26.94
2022-08-07T15:45:01.398Z,26.94
2022-08-07T15:46:31.095Z,26.98
2022-08-07T15:47:03.380Z,26.95
2022-08-07T15:48:02.043Z,26.89
2022-08-07T15:49:12.027Z,26.86
2022-08-07T15:50:05.863Z,26.89
2022-08-07T15:51:08.703Z,26.89
2022-08-07T15:52:01.692Z,26.85
2022-08-07T15:53:02.499Z,26.83
2022-08-07T15:54:01.232Z,26.93
2022-08-07T15:55:02.690Z,26.71
2022-08-07T15:56:02.969Z,26.67
2022-08-07T15:57:01.208Z,26.67
2022-08-07T15:58:01.197Z,26.68
2022-08-07T15:59:01.158Z,26.68
2022-08-07T16:00:04.397Z,26.64
2022-08-07T16:01:01.174Z,26.70
2022-08-07T16:02:01.987Z,26.64
2022-08-07T16:03:01.123Z,26.70
2022-08-07T16:04:01.107Z,26.43
2022-08-07T16:05:01.082Z,26.42
2022-08-07T16:06:01.080Z,26.41
2022-08-07T16:07:01.066Z,26.41
2022-08-07T16:08:31.235Z,26.30
2022-08-07T16:09:01.028Z,26.33
2022-08-07T16:10:01.054Z,26.30
2022-08-07T16:11:01.023Z,26.21
2022-08-07T16:12:00.987Z,26.23
2022-08-07T16:13:05.492Z,26.27
2022-08-07T16:14:02.915Z,26.33
2022-08-07T16:15:00.965Z,26.41
2022-08-07T16:16:06.120Z,26.41
2022-08-07T16:17:00.951Z,26.27
2022-08-07T16:18:03.798Z,26.31
2022-08-07T16:19:00.908Z,26.23
2022-08-07T16:20:00.893Z,26.23
2022-08-07T16:22:01.814Z,26.19
2022-08-07T16:22:04.079Z,26.11
2022-08-07T16:23:05.460Z,26.08
2022-08-07T16:24:00.833Z,26.05
2022-08-07T16:25:00.811Z,26.08
2022-08-07T16:26:00.805Z,26.07
2022-08-07T16:27:00.788Z,26.04
2022-08-07T16:28:00.794Z,26.05
2022-08-07T16:30:07.341Z,25.93
2022-08-07T16:30:10.861Z,26.03
2022-08-07T16:31:00.732Z,26.07
2022-08-07T16:32:00.799Z,26.05
2022-08-07T16:34:02.756Z,26.07
2022-08-07T16:34:10.224Z,25.95
2022-08-07T16:35:00.693Z,25.98
2022-08-07T16:36:00.777Z,25.96
2022-08-07T16:37:02.420Z,25.95
2022-08-07T16:38:05.945Z,25.98
2022-08-07T16:39:02.076Z,25.88
2022-08-07T16:40:00.733Z,25.93
2022-08-07T16:41:02.411Z,25.83
2022-08-07T16:42:00.682Z,25.85
2022-08-07T16:43:00.570Z,25.81
2022-08-07T16:44:03.881Z,25.73
2022-08-07T16:45:24.604Z,25.86
2022-08-07T16:46:33.513Z,25.77
2022-08-07T16:47:16.036Z,25.81
2022-08-07T16:48:00.503Z,25.86
2022-08-07T16:50:20.822Z,25.88
2022-08-07T16:50:27.789Z,25.89
2022-08-07T16:51:20.938Z,25.83
2022-08-07T16:52:48.671Z,25.77
2022-08-07T16:53:14.720Z,25.70
2022-08-07T16:54:06.494Z,25.70
2022-08-07T16:55:08.162Z,25.70
2022-08-07T16:56:00.389Z,25.58
2022-08-07T16:57:00.379Z,25.59
2022-08-07T16:58:02.412Z,25.71
2022-08-07T16:59:10.581Z,25.71
2022-08-07T17:00:00.332Z,26.05
2022-08-07T17:01:00.390Z,26.20
2022-08-07T17:02:02.895Z,26.21
2022-08-07T17:03:04.776Z,26.38
2022-08-07T17:04:00.569Z,26.36
2022-08-07T17:05:00.287Z,26.45
2022-08-07T17:06:19.930Z,26.38
2022-08-07T17:07:03.965Z,26.24
2022-08-07T17:08:00.248Z,26.21
2022-08-07T17:09:10.651Z,26.24
2022-08-07T17:10:08.010Z,26.12
2022-08-07T17:11:00.206Z,26.07
2022-08-07T17:12:04.115Z,25.95
2022-08-07T17:13:01.072Z,25.89
2022-08-07T17:14:19.192Z,25.86
2022-08-07T17:15:00.140Z,25.77
2022-08-07T17:16:00.129Z,25.64
2022-08-07T17:17:00.134Z,25.70
2022-08-07T17:18:00.092Z,25.59
2022-08-07T17:19:00.102Z,25.56
2022-08-07T17:20:02.966Z,25.61
2022-08-07T17:21:00.049Z,25.55
2022-08-07T17:22:00.044Z,25.53
2022-08-07T17:23:00.038Z,25.41
2022-08-07T17:24:00.006Z,25.41
2022-08-07T17:25:00.010Z,25.33
2022-08-07T17:25:59.981Z,25.26
2022-08-07T17:26:59.963Z,25.21
2022-08-07T17:28:00.439Z,25.16
2022-08-07T17:29:04.481Z,25.18
2022-08-07T17:30:15.818Z,25.11
2022-08-07T17:30:59.913Z,25.04
2022-08-07T17:32:02.479Z,25.08
2022-08-07T17:32:59.878Z,25.01
2022-08-07T17:34:32.794Z,25.06
2022-08-07T17:35:50.880Z,24.99
2022-08-07T17:35:59.841Z,24.82
2022-08-07T17:37:09.724Z,24.89
2022-08-07T17:38:06.665Z,24.76
2022-08-07T17:38:59.869Z,24.85
2022-08-07T17:40:03.428Z,24.79
2022-08-07T17:40:59.768Z,24.81
2022-08-07T17:42:03.476Z,24.78
2022-08-07T17:43:00.479Z,24.74
2022-08-07T17:44:03.182Z,24.76
2022-08-07T17:44:59.729Z,24.75
2022-08-07T17:45:59.711Z,24.68
2022-08-07T17:46:59.683Z,24.68
2022-08-07T17:47:59.686Z,24.58
2022-08-07T17:48:59.650Z,24.63
2022-08-07T17:49:59.674Z,24.52
2022-08-07T17:50:59.630Z,24.55
2022-08-07T17:52:01.463Z,24.53
2022-08-07T17:53:00.605Z,24.51
2022-08-07T17:54:01.992Z,24.43
2022-08-07T17:54:59.561Z,24.36
2022-08-07T17:56:06.194Z,24.44
2022-08-07T17:56:59.533Z,24.38
2022-08-07T17:58:02.256Z,24.25
2022-08-07T17:58:59.522Z,24.26
2022-08-07T17:59:59.496Z,24.25
2022-08-07T18:00:59.549Z,24.22
2022-08-07T18:01:59.510Z,24.19
2022-08-07T18:02:59.455Z,24.15
2022-08-07T18:04:07.126Z,24.06
2022-08-07T18:04:59.428Z,24.06
2022-08-07T18:06:03.327Z,24.04
2022-08-07T18:07:19.956Z,23.89
2022-08-07T18:07:59.393Z,23.94
2022-08-07T18:09:05.797Z,23.92
2022-08-07T18:10:07.074Z,23.82
2022-08-07T18:11:53.551Z,23.85
2022-08-07T18:12:17.715Z,23.84
2022-08-07T18:12:59.320Z,23.81
2022-08-07T18:14:01.618Z,23.79
2022-08-07T18:14:59.277Z,23.69
2022-08-07T18:15:59.290Z,23.76
2022-08-07T18:16:59.259Z,23.73
2022-08-07T18:18:44.805Z,23.73
2022-08-07T18:21:04.198Z,23.73
2022-08-07T18:21:06.590Z,23.63
2022-08-07T18:21:10.962Z,23.74
2022-08-07T18:22:03.467Z,23.66
2022-08-07T18:22:59.159Z,23.66
2022-08-07T18:23:59.148Z,23.66
2022-08-07T18:24:59.129Z,23.60
2022-08-07T18:26:00.962Z,23.56
2022-08-07T18:26:59.119Z,23.51
2022-08-07T18:27:59.092Z,23.42
2022-08-07T18:28:59.157Z,23.44
2022-08-07T18:30:06.026Z,23.42
2022-08-07T18:30:59.078Z,23.39
2022-08-07T18:31:59.025Z,23.48
2022-08-07T18:33:10.972Z,23.41
2022-08-07T18:33:59.071Z,23.37
2022-08-07T18:35:01.579Z,23.42
2022-08-07T18:35:58.965Z,23.25
2022-08-07T18:36:58.967Z,23.31
2022-08-07T18:38:58.722Z,23.25
2022-08-07T18:39:01.136Z,23.31
2022-08-07T18:40:06.407Z,23.34
2022-08-07T18:41:07.906Z,23.25
2022-08-07T18:41:58.938Z,23.25
2022-08-07T18:42:58.857Z,23.42
2022-08-07T18:43:59.076Z,23.25
2022-08-07T18:45:44.432Z,23.34
2022-08-07T18:46:25.494Z,23.26
2022-08-07T18:47:00.300Z,23.33
2022-08-07T18:48:00.699Z,23.28
2022-08-07T18:50:19.686Z,23.25
2022-08-07T18:50:30.416Z,23.22
2022-08-07T18:50:58.763Z,23.23
2022-08-07T18:52:34.750Z,23.18
2022-08-07T18:53:04.577Z,23.18
2022-08-07T18:53:58.694Z,23.13
2022-08-07T18:54:58.688Z,23.06
2022-08-07T18:55:58.670Z,23.10
2022-08-07T18:57:30.543Z,22.98
2022-08-07T18:57:59.686Z,22.96
2022-08-07T18:58:58.633Z,22.98
2022-08-07T19:00:00.631Z,22.80
2022-08-07T19:00:59.548Z,22.80
2022-08-07T19:02:18.632Z,22.83
2022-08-07T19:02:58.617Z,22.81
2022-08-07T19:03:58.605Z,22.86
2022-08-07T19:05:14.829Z,22.81
2022-08-07T19:06:04.065Z,22.85
2022-08-07T19:06:58.496Z,22.80
2022-08-07T19:07:58.850Z,22.73
2022-08-07T19:08:58.773Z,22.73
2022-08-07T19:09:58.974Z,22.77
2022-08-07T19:10:58.446Z,22.67
2022-08-07T19:12:04.673Z,22.76
2022-08-07T19:13:10.414Z,22.74
2022-08-07T19:13:58.398Z,22.68
2022-08-07T19:14:58.374Z,22.62
2022-08-07T19:16:05.472Z,22.66
2022-08-07T19:17:07.612Z,22.51
2022-08-07T19:18:02.876Z,22.55
2022-08-07T19:18:58.691Z,22.55
2022-08-07T19:19:58.320Z,22.41
2022-08-07T19:21:08.313Z,22.46
2022-08-07T19:22:04.344Z,22.41
2022-08-07T19:23:00.817Z,22.34
2022-08-07T19:24:00.265Z,22.34
2022-08-07T19:24:58.220Z,22.28
2022-08-07T19:26:24.080Z,22.30
2022-08-07T19:28:57.686Z,22.33
2022-08-07T19:30:57.064Z,22.25
2022-08-07T19:31:02.942Z,22.22
2022-08-07T19:31:04.381Z,22.30
2022-08-07T19:31:42.806Z,22.23
2022-08-07T19:32:17.415Z,22.19
2022-08-07T19:32:59.287Z,22.23
2022-08-07T19:33:58.568Z,22.19
2022-08-07T19:34:58.062Z,22.23
2022-08-07T19:35:58.044Z,22.21
2022-08-07T19:36:58.037Z,22.13
2022-08-07T19:37:58.465Z,22.15
2022-08-07T19:38:58.080Z,22.11
2022-08-07T19:40:02.015Z,22.06
2022-08-07T19:40:57.968Z,22.09
2022-08-07T19:42:08.345Z,22.00
2022-08-07T19:42:57.938Z,22.11
2022-08-07T19:44:01.088Z,22.04
2022-08-07T19:44:58.966Z,22.06
2022-08-07T19:46:09.713Z,22.00
2022-08-07T19:46:58.131Z,21.98
2022-08-07T19:47:57.870Z,21.94
2022-08-07T19:48:57.858Z,21.98
2022-08-07T19:50:03.178Z,21.97
2022-08-07T19:50:57.817Z,21.85
2022-08-07T19:52:00.661Z,21.81
2022-08-07T19:52:59.105Z,21.82
2022-08-07T19:54:32.588Z,21.80
2022-08-07T19:54:57.750Z,21.80
2022-08-07T19:55:58.584Z,21.74
2022-08-07T19:58:00.892Z,21.67
2022-08-07T19:58:12.793Z,21.62
2022-08-07T19:58:57.708Z,21.58
2022-08-07T19:59:57.685Z,21.53
2022-08-07T20:00:57.769Z,21.55
2022-08-07T20:01:58.037Z,21.59
2022-08-07T20:02:57.656Z,21.47
2022-08-07T20:03:57.684Z,21.43